Time;durP1;ratioP1;P1;durP2;ratioP2;P2;SDS_P1;SDS_P2;PMS_P1;PMS_P2;Temp;Humidity;BMP_temperature;BMP_pressure;BME280_temperature;BME280_humidity;BME280_pressure;Samples;Min_cycle;Max_cycle;Signal;HPM_P1;HPM_P2
2022/07/26 00:00:57;;;;;;;1.10;0.90;;;;;;;13.02;77.47;98649.02;104882;1271;75910;-25
2022/07/26 00:03:24;;;;;;;1.00;0.60;;;;;;;12.78;78.27;98650.59;104989;1270;63727;-25
2022/07/26 00:05:52;;;;;;;3.60;0.70;;;;;;;13.10;78.19;98648.37;105093;1271;61051;-25
2022/07/26 00:08:19;;;;;;;2.00;0.70;;;;;;;13.52;76.72;98645.67;105071;1271;75457;-25
2022/07/26 00:10:48;;;;;;;2.30;0.80;;;;;;;13.49;76.52;98643.90;104887;1271;75752;-25
2022/07/26 00:13:19;;;;;;;3.60;0.80;;;;;;;13.27;76.91;98646.23;104628;1271;75699;-25
2022/07/26 00:15:47;;;;;;;2.90;1.10;;;;;;;12.98;78.20;98646.44;104906;1271;61127;-25
2022/07/26 00:18:15;;;;;;;2.60;1.20;;;;;;;12.73;79.14;98644.11;104784;1271;61227;-25
2022/07/26 00:20:43;;;;;;;1.10;0.60;;;;;;;12.55;79.85;98644.12;104834;1271;75426;-25
2022/07/26 00:23:10;;;;;;;1.50;0.50;;;;;;;12.96;79.44;98645.71;104888;1271;76985;-25
2022/07/26 00:25:38;;;;;;;11.80;1.30;;;;;;;13.48;77.69;98645.04;104955;1271;75696;-25
2022/07/26 00:28:05;;;;;;;0.80;0.50;;;;;;;13.52;76.56;98641.89;104859;1271;62058;-25
2022/07/26 00:30:35;;;;;;;11.50;1.00;;;;;;;13.24;76.36;98645.25;105021;1271;63004;-24
2022/07/26 00:33:05;;;;;;;1.30;0.90;;;;;;;12.94;76.88;98642.27;105150;1271;76254;-25
2022/07/26 00:35:34;;;;;;;1.50;0.70;;;;;;;12.69;77.27;98642.60;105011;1272;76969;-24
2022/07/26 00:38:01;;;;;;;0.70;0.50;;;;;;;12.48;78.26;98643.23;104836;1271;75293;-24
2022/07/26 00:40:29;;;;;;;3.20;0.80;;;;;;;12.86;78.90;98641.30;104911;1271;61026;-24
2022/07/26 00:42:57;;;;;;;3.80;0.70;;;;;;;13.35;76.71;98641.42;105140;1271;61998;-24
2022/07/26 00:45:24;;;;;;;2.40;0.60;;;;;;;13.30;75.12;98640.13;105016;1271;75504;-25
2022/07/26 00:47:52;;;;;;;0.90;0.70;;;;;;;13.05;75.86;98642.22;104939;1271;77010;-25
2022/07/26 00:50:19;;;;;;;1.60;0.90;;;;;;;12.77;76.51;98638.71;105119;1271;75379;-25
2022/07/26 00:52:48;;;;;;;5.00;0.90;;;;;;;12.47;76.75;98633.95;105113;1271;61997;-24
2022/07/26 00:55:15;;;;;;;0.50;0.50;;;;;;;12.22;77.51;98633.95;105137;1271;62995;-25
2022/07/26 00:57:43;;;;;;;2.00;0.70;;;;;;;12.52;77.34;98629.23;105113;1271;75221;-25
2022/07/26 01:00:13;;;;;;;1.10;0.80;;;;;;;12.97;76.44;98629.80;105064;1271;77417;-25
2022/07/26 01:02:40;;;;;;;1.00;0.60;;;;;;;13.00;76.23;98629.17;104767;1271;74381;-25
2022/07/26 01:05:08;;;;;;;3.40;0.90;;;;;;;12.82;76.43;98630.55;104753;1271;61272;-24
2022/07/26 01:07:37;;;;;;;6.80;0.90;;;;;;;12.55;77.39;98628.58;104683;1272;62763;-24
2022/07/26 01:10:07;;;;;;;1.80;0.90;;;;;;;12.30;77.98;98627.50;104898;1271;75539;-24
2022/07/26 01:12:34;;;;;;;1.20;0.80;;;;;;;12.10;78.99;98625.35;105161;1271;75575;-25
2022/07/26 01:15:02;;;;;;;2.30;0.70;;;;;;;12.55;79.09;98626.21;105174;1271;74410;-24
2022/07/26 01:17:29;;;;;;;1.00;0.90;;;;;;;12.98;76.55;98624.13;105150;1271;62952;-24
2022/07/26 01:20:00;;;;;;;3.50;0.90;;;;;;;12.87;76.42;98619.63;104906;1271;61932;-24
2022/07/26 01:22:28;;;;;;;1.30;0.80;;;;;;;12.70;77.16;98618.86;104850;1271;76745;-25
2022/07/26 01:24:55;;;;;;;3.10;0.80;;;;;;;12.46;76.98;98618.64;105066;1271;76906;-25
2022/07/26 01:27:22;;;;;;;2.00;0.80;;;;;;;12.22;77.72;98618.98;105064;1271;75548;-24
2022/07/26 01:29:50;;;;;;;1.90;0.80;;;;;;;12.05;78.41;98620.09;104815;1271;63755;-24
2022/07/26 01:32:18;;;;;;;2.10;0.70;;;;;;;12.44;78.61;98615.84;104922;1271;63073;-24
2022/07/26 01:34:46;;;;;;;1.90;0.80;;;;;;;12.95;76.74;98616.57;104651;1271;76680;-25
2022/07/26 01:37:13;;;;;;;1.20;0.80;;;;;;;12.96;75.61;98611.11;104811;1271;77280;-24
2022/07/26 01:39:41;;;;;;;1.20;0.80;;;;;;;12.72;75.57;98608.69;104888;1271;74380;-24
2022/07/26 01:42:08;;;;;;;3.90;1.00;;;;;;;12.44;76.35;98605.81;104909;1269;63148;-24
2022/07/26 01:44:37;;;;;;;2.70;1.20;;;;;;;12.15;77.02;98605.92;104861;1271;63185;-24
2022/07/26 01:47:04;;;;;;;2.40;0.60;;;;;;;11.91;77.05;98606.13;104879;1271;74286;-24
2022/07/26 01:49:31;;;;;;;1.40;0.90;;;;;;;12.22;76.61;98604.21;104850;1271;74910;-24
2022/07/26 01:51:59;;;;;;;1.80;0.90;;;;;;;12.62;75.68;98600.96;104994;1271;75342;-25
2022/07/26 01:54:26;;;;;;;0.90;0.70;;;;;;;12.56;74.70;98602.38;105197;1271;61812;-25
2022/07/26 01:56:53;;;;;;;1.80;0.80;;;;;;;12.30;74.72;98597.08;104844;1271;61992;-24
2022/07/26 01:59:21;;;;;;;1.20;0.80;;;;;;;11.95;75.42;98593.75;104874;1271;76541;-24
2022/07/26 02:01:48;;;;;;;2.30;0.90;;;;;;;11.65;76.01;98588.27;104864;1271;76704;-24
2022/07/26 02:07:02;;;;;;;2.50;1.00;;;;;;;11.83;78.28;98585.81;104760;1271;62560;-24
2022/07/26 02:09:31;;;;;;;1.10;0.70;;;;;;;12.25;77.28;98582.50;104904;1271;63312;-24
2022/07/26 02:12:06;;;;;;;3.00;0.70;;;;;;;12.28;75.96;98583.48;104895;1271;76555;-24
2022/07/26 02:14:33;;;;;;;1.80;0.50;;;;;;;12.08;75.41;98585.52;105088;1271;77099;-24
2022/07/26 02:17:00;;;;;;;0.80;0.80;;;;;;;11.83;75.46;98588.16;104830;1271;73549;-24
2022/07/26 02:19:28;;;;;;;1.60;0.90;;;;;;;11.55;76.09;98588.86;104930;1271;63042;-25
2022/07/26 02:21:56;;;;;;;1.80;0.50;;;;;;;11.30;76.95;98587.34;104910;1271;62105;-25
2022/07/26 02:24:23;;;;;;;3.40;0.60;;;;;;;11.61;77.13;98588.63;104918;1271;75155;-25
2022/07/26 02:26:51;;;;;;;1.00;0.80;;;;;;;12.08;76.15;98590.27;104770;1271;74941;-24
2022/07/26 02:29:18;;;;;;;1.80;0.80;;;;;;;12.11;76.20;98590.89;104778;1271;75190;-24
2022/07/26 02:31:46;;;;;;;3.20;0.60;;;;;;;11.91;76.02;98592.36;105033;1271;62994;-25
2022/07/26 02:34:15;;;;;;;2.50;0.80;;;;;;;11.67;76.49;98585.38;105114;1271;61735;-24
2022/07/26 02:36:43;;;;;;;1.90;1.10;;;;;;;11.43;77.19;98589.86;105165;1272;76546;-24
2022/07/26 02:39:11;;;;;;;1.00;0.70;;;;;;;11.22;77.82;98589.83;105116;1271;77014;-24
2022/07/26 02:41:38;;;;;;;1.10;0.80;;;;;;;11.57;78.31;98590.43;104921;1271;75484;-24
2022/07/26 02:44:06;;;;;;;0.70;0.60;;;;;;;12.05;76.35;98585.64;105129;1271;62825;-24
2022/07/26 02:46:34;;;;;;;6.50;1.00;;;;;;;12.07;75.68;98584.64;105167;1271;62738;-24
2022/07/26 02:49:02;;;;;;;1.40;0.60;;;;;;;11.89;76.45;98581.89;104818;1272;75451;-24
2022/07/26 02:51:29;;;;;;;8.80;0.90;;;;;;;11.85;77.39;98584.86;104925;1271;77018;-25
2022/07/26 02:53:56;;;;;;;1.00;0.90;;;;;;;11.92;76.89;98587.20;104873;1271;74608;-24
2022/07/26 02:56:23;;;;;;;3.00;0.50;;;;;;;12.07;76.59;98594.66;104866;1271;64486;-25
2022/07/26 02:58:51;;;;;;;1.50;0.70;;;;;;;12.79;75.80;98596.73;104774;1271;61115;-25
2022/07/26 03:01:18;;;;;;;2.60;0.90;;;;;;;13.57;72.39;98600.85;104805;1272;76519;-25
2022/07/26 03:03:47;;;;;;;2.90;0.80;;;;;;;13.76;71.43;98604.60;105117;1271;76780;-25
2022/07/26 03:06:18;;;;;;;3.40;0.80;;;;;;;13.65;71.24;98605.45;105137;1271;75694;-25
2022/07/26 03:08:46;;;;;;;4.60;1.00;;;;;;;13.68;72.02;98599.27;104742;1271;62817;-24
2022/07/26 03:11:14;;;;;;;4.60;1.10;;;;;;;13.69;71.58;98595.45;104829;1271;61735;-24
2022/07/26 03:13:41;;;;;;;0.90;0.90;;;;;;;13.69;71.29;98592.22;104696;1274;75476;-25
2022/07/26 03:16:08;;;;;;;0.80;0.50;;;;;;;13.77;71.33;98589.48;104920;1271;76972;-24
2022/07/26 03:18:37;;;;;;;4.90;1.00;;;;;;;14.49;69.22;98594.79;104855;1271;75438;-23
2022/07/26 03:21:05;;;;;;;3.90;2.00;;;;;;;15.22;67.06;98593.77;104787;1271;60961;-23
2022/07/26 03:23:33;;;;;;;2.00;0.90;;;;;;;15.45;65.61;98596.19;104918;1271;62789;-24
2022/07/26 03:26:01;;;;;;;1.70;0.70;;;;;;;15.43;65.91;98600.95;104785;1271;75490;-24
2022/07/26 03:28:32;;;;;;;2.30;1.10;;;;;;;15.37;65.79;98602.46;104835;1271;76942;-24
2022/07/26 03:30:59;;;;;;;1.40;0.80;;;;;;;15.34;66.13;98605.62;104693;1271;74239;-24
2022/07/26 03:33:28;;;;;;;5.50;0.80;;;;;;;15.48;66.42;98609.35;104918;1271;61077;-24
2022/07/26 03:35:55;;;;;;;2.20;1.20;;;;;;;15.77;65.52;98613.05;104678;1271;61713;-24
2022/07/26 03:38:23;;;;;;;5.90;0.90;;;;;;;15.99;64.50;98610.44;104864;1271;75025;-24
2022/07/26 03:40:50;;;;;;;3.50;0.80;;;;;;;16.63;62.88;98608.67;104777;1271;77017;-24
2022/07/26 03:43:18;;;;;;;0.70;0.70;;;;;;;17.41;61.94;98603.27;104754;1271;74213;-24
2022/07/26 03:45:49;;;;;;;1.50;0.90;;;;;;;17.70;61.46;98604.11;104910;1271;62447;-24
2022/07/26 03:48:20;;;;;;;2.10;0.90;;;;;;;17.75;60.98;98595.71;104880;1271;61944;-24
2022/07/26 03:50:48;;;;;;;1.00;0.80;;;;;;;17.85;61.07;98599.48;104867;1271;76402;-24
2022/07/26 03:53:15;;;;;;;2.00;1.00;;;;;;;17.95;60.97;98592.77;104860;1271;76927;-24
2022/07/26 03:58:29;;;;;;;1.00;0.90;;;;;;;18.03;61.27;98592.61;104725;1271;61624;-25
2022/07/26 04:00:56;;;;;;;2.40;1.10;;;;;;;18.06;61.27;98598.80;105129;1271;61568;-25
2022/07/26 04:03:24;;;;;;;2.10;1.00;;;;;;;18.18;61.52;98602.55;105041;1272;75261;-25
2022/07/26 04:05:51;;;;;;;2.20;1.00;;;;;;;18.35;61.00;98600.09;105079;1271;75970;-25
2022/07/26 04:08:19;;;;;;;2.40;1.20;;;;;;;18.49;60.96;98594.35;104966;1271;75467;-25
2022/07/26 04:10:47;;;;;;;4.30;1.20;;;;;;;18.66;60.90;98592.81;104739;1271;62250;-25
2022/07/26 04:13:14;;;;;;;4.80;1.10;;;;;;;18.82;61.36;98587.84;105020;1271;62018;-25
2022/07/26 04:15:41;;;;;;;1.00;0.90;;;;;;;18.98;61.00;98585.55;104879;1271;76563;-25
2022/07/26 04:18:09;;;;;;;4.20;1.40;;;;;;;19.08;60.79;98581.29;104942;1271;77055;-25
2022/07/26 04:20:36;;;;;;;2.00;1.10;;;;;;;19.12;60.67;98579.62;104860;1271;74062;-25
2022/07/26 04:23:04;;;;;;;2.00;1.30;;;;;;;19.11;61.25;98576.23;104865;1271;61740;-25
2022/07/26 04:25:37;;;;;;;2.40;1.10;;;;;;;19.26;61.66;98576.26;104858;1271;62929;-25
2022/07/26 04:28:08;;;;;;;2.00;0.70;;;;;;;19.56;61.42;98571.19;104786;1271;75700;-25
2022/07/26 04:30:36;;;;;;;1.10;0.70;;;;;;;20.44;60.34;98569.42;104795;1271;76940;-25
2022/07/26 04:33:03;;;;;;;1.90;1.00;;;;;;;21.37;58.02;98570.52;104917;1271;73205;-25
2022/07/26 04:35:31;;;;;;;1.30;0.90;;;;;;;21.84;56.97;98569.65;104748;1271;61140;-25
2022/07/26 04:37:58;;;;;;;4.60;1.00;;;;;;;22.04;55.98;98567.88;104840;1271;61751;-25
2022/07/26 04:40:27;;;;;;;1.10;0.90;;;;;;;22.17;55.36;98567.86;104759;1271;76585;-23
2022/07/26 04:42:55;;;;;;;1.40;1.00;;;;;;;22.34;55.00;98575.06;104892;1271;76918;-23
2022/07/26 04:45:22;;;;;;;2.40;1.10;;;;;;;22.35;52.59;98574.17;104846;1271;75223;-24
2022/07/26 04:47:49;;;;;;;1.40;1.00;;;;;;;22.22;53.32;98572.85;104831;1271;62792;-25
2022/07/26 04:50:19;;;;;;;1.50;1.00;;;;;;;22.09;53.79;98574.96;104974;1271;63033;-24
2022/07/26 04:52:49;;;;;;;2.10;1.30;;;;;;;22.01;54.46;98577.20;104703;1271;76589;-25
2022/07/26 04:55:17;;;;;;;1.80;1.00;;;;;;;21.86;55.25;98576.63;104662;1271;75820;-26
2022/07/26 04:57:45;;;;;;;1.50;1.00;;;;;;;21.74;55.39;98578.33;104778;1271;74398;-25
2022/07/26 05:00:15;;;;;;;3.00;1.00;;;;;;;21.72;55.17;98582.78;104754;1271;62164;-24
2022/07/26 05:02:58;;;;;;;1.50;1.00;;;;;;;21.83;55.35;98578.35;104688;1271;62454;-25
2022/07/26 05:05:30;;;;;;;2.50;0.90;;;;;;;21.90;54.51;98573.83;104789;1272;76541;-25
2022/07/26 05:08:02;;;;;;;1.30;0.90;;;;;;;22.05;54.50;98576.59;104712;1271;75560;-24
2022/07/26 05:10:34;;;;;;;1.50;0.80;;;;;;;22.19;53.97;98572.92;104699;1272;74729;-25
2022/07/26 05:13:02;;;;;;;1.40;0.90;;;;;;;22.33;53.95;98573.23;105026;1271;61124;-22
2022/07/26 05:15:31;;;;;;;1.20;0.80;;;;;;;22.53;53.93;98573.33;104982;1271;62831;-25
2022/07/26 05:18:05;;;;;;;4.10;1.10;;;;;;;22.62;53.62;98575.31;104890;1271;77093;-25
2022/07/26 05:20:35;;;;;;;2.20;1.40;;;;;;;22.58;51.44;98571.18;104674;1272;77023;-23
2022/07/26 05:23:03;;;;;;;1.00;0.80;;;;;;;22.59;51.37;98568.85;104779;1271;74556;-23
2022/07/26 05:25:31;;;;;;;2.10;0.90;;;;;;;22.84;51.81;98568.76;104861;1271;63010;-22
2022/07/26 05:27:58;;;;;;;1.40;1.20;;;;;;;22.87;49.85;98570.23;104801;1271;61549;-25
2022/07/26 05:30:26;;;;;;;1.20;0.70;;;;;;;23.07;51.91;98570.22;104944;1271;75420;-25
2022/07/26 05:32:53;;;;;;;4.00;1.90;;;;;;;23.22;50.17;98564.45;104949;1271;76750;-23
2022/07/26 05:35:21;;;;;;;2.30;1.90;;;;;;;23.27;49.66;98563.48;104818;1272;75467;-23
2022/07/26 05:37:48;;;;;;;3.80;1.80;;;;;;;23.38;50.78;98562.89;104975;1271;61130;-22
2022/07/26 05:40:16;;;;;;;6.30;3.10;;;;;;;23.56;50.29;98558.88;104883;1271;61041;-22
2022/07/26 05:42:43;;;;;;;8.00;4.10;;;;;;;23.73;50.25;98557.09;105052;1272;75327;-22
2022/07/26 05:45:11;;;;;;;7.60;4.60;;;;;;;23.77;50.19;98558.52;105125;1272;76935;-25
2022/07/26 05:47:39;;;;;;;8.30;4.30;;;;;;;23.85;51.32;98560.80;104868;1271;74430;-25
2022/07/26 05:50:09;;;;;;;7.90;4.50;;;;;;;23.76;50.90;98558.42;104741;1271;61670;-25
2022/07/26 05:52:36;;;;;;;7.40;3.70;;;;;;;23.79;51.42;98556.65;104870;1271;63086;-25
2022/07/26 05:55:04;;;;;;;2.90;2.40;;;;;;;23.94;51.13;98557.15;104845;1271;76553;-25
2022/07/26 05:57:32;;;;;;;3.50;2.00;;;;;;;24.08;50.67;98558.35;104798;1271;76943;-25
2022/07/26 05:59:59;;;;;;;2.40;1.60;;;;;;;24.05;50.30;98556.34;104894;1271;75257;-25
2022/07/26 06:02:27;;;;;;;4.50;1.00;;;;;;;23.98;50.43;98559.94;104707;1271;61817;-25
2022/07/26 06:04:54;;;;;;;2.10;1.40;;;;;;;23.75;49.97;98560.16;104729;1271;61916;-25
2022/07/26 06:07:21;;;;;;;4.30;1.30;;;;;;;23.88;48.97;98557.10;104975;1271;75415;-24
2022/07/26 06:09:49;;;;;;;1.50;0.90;;;;;;;24.04;49.33;98558.64;104954;1271;76891;-24
2022/07/26 06:12:16;;;;;;;2.10;0.90;;;;;;;24.06;48.13;98554.70;104828;1271;74437;-24
2022/07/26 06:14:44;;;;;;;1.20;0.60;;;;;;;24.17;48.05;98550.13;104762;1271;62092;-24
2022/07/26 06:17:13;;;;;;;1.20;0.70;;;;;;;24.28;47.86;98544.56;104871;1271;63161;-24
2022/07/26 06:19:41;;;;;;;0.80;0.70;;;;;;;24.42;47.07;98537.92;104878;1271;75463;-24
2022/07/26 06:22:13;;;;;;;;;;;;;;;24.50;45.36;98536.42;104669;1272;77111;-24
2022/07/26 06:24:41;;;;;;;0.70;0.70;;;;;;;24.50;46.64;98535.64;104849;1270;74797;-24
2022/07/26 06:27:08;;;;;;;1.20;0.60;;;;;;;24.69;46.11;98534.82;104770;1271;61082;-24
2022/07/26 06:29:35;;;;;;;0.70;0.60;;;;;;;24.90;45.48;98532.31;104794;1271;62220;-24
2022/07/26 06:32:03;;;;;;;1.00;0.60;;;;;;;24.90;44.05;98538.66;104767;1271;76730;-24
2022/07/26 06:34:31;;;;;;;0.60;0.60;;;;;;;24.84;44.12;98540.73;104946;1271;75393;-24
2022/07/26 06:36:59;;;;;;;0.70;0.60;;;;;;;24.81;43.40;98535.26;104837;1271;74209;-24
2022/07/26 06:39:26;;;;;;;1.00;0.80;;;;;;;24.76;44.61;98535.83;104856;1271;62938;-25
2022/07/26 06:41:54;;;;;;;1.80;1.40;;;;;;;25.02;44.50;98537.11;104702;1271;62981;-25
2022/07/26 06:44:22;;;;;;;1.70;0.90;;;;;;;25.27;43.39;98538.13;104769;1272;76506;-24
2022/07/26 06:46:50;;;;;;;1.30;0.80;;;;;;;25.40;43.94;98542.72;104772;1272;77120;-24
2022/07/26 06:49:17;;;;;;;3.20;0.80;;;;;;;25.51;44.24;98536.68;104868;1271;75157;-24
2022/07/26 06:51:49;;;;;;;1.70;0.80;;;;;;;25.65;42.81;98537.71;104819;1271;61875;-25
2022/07/26 06:54:16;;;;;;;3.10;1.00;;;;;;;25.79;42.68;98533.61;104866;1271;61169;-23
2022/07/26 06:56:43;;;;;;;1.10;0.90;;;;;;;25.90;41.50;98533.58;104728;1272;75367;-23
2022/07/26 06:59:11;;;;;;;1.40;0.90;;;;;;;25.83;40.56;98530.00;104862;1271;76741;-23
2022/07/26 07:01:38;;;;;;;3.30;1.00;;;;;;;25.83;40.03;98532.77;104889;1271;75339;-23
2022/07/26 07:04:29;;;;;;;2.00;1.00;;;;;;;25.58;40.40;98527.80;105107;1271;61121;-23
2022/07/26 07:07:01;;;;;;;2.30;1.00;;;;;;;25.36;40.49;98529.05;105128;1271;61108;-23
2022/07/26 07:09:32;;;;;;;1.20;0.80;;;;;;;25.24;39.91;98523.75;105028;1272;75404;-23
2022/07/26 07:12:02;;;;;;;2.70;0.80;;;;;;;25.24;40.19;98517.82;104797;1271;76575;-23
2022/07/26 07:14:37;;;;;;;1.90;1.40;;;;;;;25.29;40.50;98514.15;104741;1271;75390;-23
2022/07/26 07:17:05;;;;;;;2.10;0.80;;;;;;;25.41;40.10;98512.52;104730;1274;61124;-23
2022/07/26 07:19:39;;;;;;;3.20;0.90;;;;;;;25.14;38.75;98509.40;104740;1272;61899;-23
2022/07/26 07:22:10;;;;;;;1.90;0.70;;;;;;;24.85;37.06;98511.43;104791;1271;75320;-23
2022/07/26 07:24:40;;;;;;;0.90;0.80;;;;;;;25.05;36.30;98510.98;104881;1271;74980;-23
2022/07/26 07:27:07;;;;;;;2.70;0.90;;;;;;;25.04;36.32;98511.21;104906;1272;75458;-23
2022/07/26 07:29:37;;;;;;;1.70;1.20;;;;;;;25.39;38.64;98508.27;104921;1271;62825;-23
2022/07/26 07:32:07;;;;;;;1.00;0.80;;;;;;;25.75;38.57;98506.49;104761;1271;61902;-23
2022/07/26 07:34:44;;;;;;;1.00;0.70;;;;;;;25.74;37.72;98507.94;105107;1271;75141;-23
2022/07/26 07:37:14;;;;;;;7.40;1.00;;;;;;;25.70;38.07;98510.88;104836;1271;380536;-23
2022/07/26 07:39:41;;;;;;;1.60;0.60;;;;;;;25.42;38.08;98513.52;105010;1271;75472;-24
2022/07/26 07:42:09;;;;;;;2.30;0.80;;;;;;;25.74;38.34;98514.89;105108;1271;61231;-24
2022/07/26 07:44:36;;;;;;;2.70;0.90;;;;;;;25.58;38.20;98515.23;104712;1274;61693;-24
2022/07/26 07:47:04;;;;;;;1.20;0.90;;;;;;;25.62;37.63;98517.71;104884;1271;76364;-24
2022/07/26 07:49:31;;;;;;;0.70;0.70;;;;;;;25.78;38.28;98521.64;104897;1271;76928;-24
2022/07/26 07:52:00;;;;;;;1.30;0.90;;;;;;;25.78;39.90;98519.02;104905;1271;73907;-24
2022/07/26 07:54:28;;;;;;;1.20;0.80;;;;;;;25.82;38.05;98515.48;104887;1271;62773;-25
2022/07/26 07:56:56;;;;;;;2.50;1.10;;;;;;;25.30;38.21;98517.06;104975;1271;61964;-24
2022/07/26 07:59:23;;;;;;;14.70;2.00;;;;;;;25.39;39.63;98514.52;104755;1271;74481;-24
2022/07/26 08:01:50;;;;;;;0.90;0.80;;;;;;;25.71;39.12;98515.48;104754;1271;76677;-24
2022/07/26 08:04:18;;;;;;;3.60;3.20;;;;;;;25.65;38.20;98517.86;104854;1271;75499;-24
2022/07/26 08:06:45;;;;;;;3.50;2.60;;;;;;;26.02;38.23;98514.54;104882;1271;62442;-24
2022/07/26 08:09:17;;;;;;;1.50;1.00;;;;;;;25.56;38.04;98514.34;104786;1271;62224;-24
2022/07/26 08:11:45;;;;;;;1.00;0.80;;;;;;;26.05;38.41;98514.06;104887;1271;74129;-24
2022/07/26 08:14:18;;;;;;;3.80;2.40;;;;;;;25.23;38.49;98511.44;104874;1271;76941;-24
2022/07/26 08:16:45;;;;;;;1.50;1.20;;;;;;;25.30;38.10;98505.33;104818;1272;75319;-24
2022/07/26 08:19:13;;;;;;;3.40;1.30;;;;;;;25.94;37.50;98503.95;104904;1271;61120;-24
2022/07/26 08:21:41;;;;;;;1.20;0.90;;;;;;;26.00;37.86;98503.33;104941;1271;61819;-24
2022/07/26 08:24:09;;;;;;;1.70;1.00;;;;;;;26.45;36.75;98506.42;104991;1271;76538;-24
2022/07/26 08:26:37;;;;;;;5.30;0.70;;;;;;;26.57;35.83;98504.91;105097;1271;76963;-24
2022/07/26 08:29:05;;;;;;;1.90;0.60;;;;;;;26.95;36.92;98502.00;104848;1272;75376;-24
2022/07/26 08:31:32;;;;;;;1.70;0.60;;;;;;;27.23;36.42;98499.20;104912;1270;61721;-24
2022/07/26 08:34:01;;;;;;;1.10;0.70;;;;;;;27.48;36.90;98493.63;104756;1274;63301;-24
2022/07/26 08:36:28;;;;;;;2.50;0.80;;;;;;;27.68;34.90;98495.02;104836;1271;76320;-24
2022/07/26 08:39:00;;;;;;;1.60;0.80;;;;;;;27.71;34.90;98492.59;104781;1271;77030;-24
2022/07/26 08:41:27;;;;;;;1.00;0.90;;;;;;;27.60;35.40;98488.36;104746;1271;75441;-24
2022/07/26 08:43:54;;;;;;;1.00;0.70;;;;;;;27.55;34.77;98487.14;104852;1271;63013;-24
2022/07/26 08:46:23;;;;;;;0.80;0.60;;;;;;;27.65;35.78;98491.94;104731;1272;62724;-24
2022/07/26 08:48:56;;;;;;;0.80;0.60;;;;;;;27.86;35.70;98487.55;104777;1272;76555;-24
2022/07/26 08:51:24;;;;;;;4.70;0.60;;;;;;;27.97;34.03;98484.17;104733;1274;76988;-24
2022/07/26 08:53:57;;;;;;;0.70;0.70;;;;;;;28.10;33.98;98480.83;104718;1271;75374;-24
2022/07/26 08:56:33;;;;;;;4.10;0.70;;;;;;;28.35;33.12;98483.13;104661;1272;62886;-24
2022/07/26 08:59:15;;;;;;;1.20;1.00;;;;;;;27.53;32.96;98488.73;104783;1271;61715;-25
2022/07/26 09:04:29;;;;;;;1.70;0.80;;;;;;;26.68;34.86;98489.31;101657;1309;600660;-23
2022/07/26 09:07:07;;;;;;;2.00;0.70;;;;;;;27.30;34.24;98483.17;104043;1284;61950;-23
2022/07/26 09:10:03;;;;;;;1.60;1.30;;;;;;;27.88;34.25;98477.95;103996;1285;61138;-23
2022/07/26 09:12:31;;;;;;;1.00;0.80;;;;;;;28.13;33.60;98476.31;103845;1284;73563;-23
2022/07/26 09:14:59;;;;;;;1.10;0.70;;;;;;;28.01;33.07;98482.61;103910;1284;76063;-23
2022/07/26 09:17:48;;;;;;;4.50;1.40;;;;;;;28.05;33.66;98476.34;103684;1284;444881;-24
2022/07/26 09:20:25;;;;;;;1.30;0.60;;;;;;;28.37;33.50;98472.60;104267;1284;63020;-24
2022/07/26 09:23:08;;;;;;;1.70;1.40;;;;;;;27.96;32.51;98474.68;104402;1281;61124;-24
2022/07/26 09:25:37;;;;;;;2.50;0.90;;;;;;;27.61;33.68;98482.80;104111;1281;73734;-24
2022/07/26 09:28:24;;;;;;;0.60;0.60;;;;;;;28.11;32.81;98487.86;104388;1281;77046;-24
2022/07/26 09:30:56;;;;;;;1.40;0.60;;;;;;;28.39;31.36;98485.95;104305;1281;75773;-24
2022/07/26 09:33:44;;;;;;;0.50;0.50;;;;;;;28.47;31.79;98484.83;104322;1284;62742;-24
2022/07/26 09:36:11;;;;;;;1.80;0.80;;;;;;;28.28;32.04;98484.73;104414;1281;63145;-24
2022/07/26 09:39:01;;;;;;;1.00;0.60;;;;;;;27.63;32.08;98488.34;104531;1281;75756;-24
2022/07/26 09:41:35;;;;;;;1.90;0.70;;;;;;;28.33;33.20;98481.30;104477;1281;76789;-24
2022/07/26 09:44:05;;;;;;;0.70;0.70;;;;;;;28.02;31.32;98481.05;104473;1281;74081;-24
2022/07/26 09:46:34;;;;;;;0.70;0.60;;;;;;;28.00;31.25;98476.66;104109;1286;62076;-24
2022/07/26 09:49:18;;;;;;;4.30;1.00;;;;;;;28.90;32.03;98471.62;104283;1284;62731;-24
2022/07/26 09:51:47;;;;;;;6.80;1.20;;;;;;;29.41;30.04;98471.77;104626;1274;75688;-24
2022/07/26 09:54:30;;;;;;;1.70;0.50;;;;;;;29.70;28.96;98469.38;104346;1278;75744;-24
2022/07/26 09:56:58;;;;;;;1.60;0.80;;;;;;;29.95;28.49;98467.06;104318;1275;75471;-24
2022/07/26 09:59:26;;;;;;;1.50;0.70;;;;;;;29.98;27.77;98469.20;104454;1277;61883;-24
2022/07/26 10:01:54;;;;;;;1.60;1.00;;;;;;;29.50;28.97;98470.05;104444;1278;63073;-24
2022/07/26 10:04:22;;;;;;;1.00;0.70;;;;;;;29.78;28.98;98469.82;104362;1275;75656;-25
2022/07/26 10:06:50;;;;;;;1.60;0.70;;;;;;;30.21;29.52;98470.30;104728;1277;75984;-24
2022/07/26 10:09:17;;;;;;;1.10;0.60;;;;;;;30.22;28.48;98464.17;104534;1277;73925;-24
2022/07/26 10:11:53;;;;;;;0.80;0.60;;;;;;;30.13;28.72;98464.17;104327;1277;62106;-24
2022/07/26 10:14:41;;;;;;;0.70;0.60;;;;;;;30.10;28.13;98467.08;104290;1278;61268;-25
2022/07/26 10:17:29;;;;;;;1.40;0.80;;;;;;;30.30;28.67;98461.88;104460;1278;76018;-24
2022/07/26 10:20:04;;;;;;;2.00;0.80;;;;;;;30.73;28.52;98464.46;104359;1277;76204;-24
2022/07/26 10:22:44;;;;;;;0.80;0.60;;;;;;;30.61;29.42;98464.36;104437;1277;74461;-25
2022/07/26 10:25:18;;;;;;;0.90;0.80;;;;;;;30.55;28.67;98463.67;104377;1278;62275;-24
2022/07/26 10:27:50;;;;;;;1.40;0.70;;;;;;;30.15;28.69;98459.60;104411;1278;61922;-24
2022/07/26 10:30:26;;;;;;;3.40;1.00;;;;;;;29.67;29.56;98461.20;104431;1277;74597;-24
2022/07/26 10:33:09;;;;;;;1.00;0.60;;;;;;;29.28;29.64;98465.00;104482;1277;77020;-24
2022/07/26 10:35:39;;;;;;;0.70;0.70;;;;;;;29.34;29.99;98460.56;104600;1278;75599;-24
2022/07/26 10:38:32;;;;;;;2.60;0.70;;;;;;;29.45;29.67;98452.90;104545;1277;61265;-24
2022/07/26 10:41:00;;;;;;;4.20;1.00;;;;;;;29.37;30.36;98456.08;104565;1277;62130;-24
2022/07/26 10:43:28;;;;;;;0.60;0.60;;;;;;;29.31;30.35;98463.02;104749;1277;75702;-25
2022/07/26 10:46:17;;;;;;;0.80;0.80;;;;;;;29.27;30.18;98461.77;104556;1277;75719;-24
2022/07/26 10:48:58;;;;;;;1.10;0.70;;;;;;;29.60;28.96;98456.04;104286;1277;75385;-24
2022/07/26 10:51:31;;;;;;;1.20;0.80;;;;;;;29.82;29.30;98457.91;104306;1278;63093;-24
2022/07/26 10:54:06;;;;;;;;;;;;;;;29.92;29.90;98460.70;104405;1277;61054;-25
2022/07/26 10:56:33;;;;;;;0.80;0.80;;;;;;;30.23;28.15;98455.80;104344;1278;74796;-24
2022/07/26 10:59:02;;;;;;;1.00;0.60;;;;;;;30.41;29.36;98453.48;104605;1277;76895;-24
2022/07/26 11:01:37;;;;;;;1.70;0.70;;;;;;;30.71;28.94;98454.95;104361;1278;75559;-24
2022/07/26 11:04:17;;;;;;;0.90;0.70;;;;;;;30.81;28.30;98451.81;104474;1277;61736;-25
2022/07/26 11:06:44;;;;;;;0.80;0.60;;;;;;;30.82;27.55;98447.67;104558;1280;62094;-24
2022/07/26 11:09:12;;;;;;;1.60;0.80;;;;;;;30.74;28.06;98448.05;104627;1277;75702;-24
2022/07/26 11:11:39;;;;;;;3.20;0.70;;;;;;;30.43;27.74;98445.31;104559;1277;76930;-24
2022/07/26 11:14:14;;;;;;;1.50;0.50;;;;;;;30.49;28.58;98441.23;104642;1278;74483;-24
2022/07/26 11:16:44;;;;;;;1.70;0.80;;;;;;;30.24;28.18;98439.80;104653;1278;63083;-24
2022/07/26 11:19:24;;;;;;;20.40;1.50;;;;;;;30.41;28.47;98440.88;104678;1278;62102;-24
2022/07/26 11:21:53;;;;;;;1.90;0.80;;;;;;;30.49;28.03;98437.08;104638;1278;75668;-24
2022/07/26 11:24:20;;;;;;;1.20;0.80;;;;;;;30.34;28.17;98438.13;104656;1280;75763;-24
2022/07/26 11:26:48;;;;;;;0.80;0.70;;;;;;;30.09;28.21;98437.13;104546;1277;73983;-24
2022/07/26 11:29:25;;;;;;;0.80;0.70;;;;;;;29.57;29.58;98434.05;104288;1278;62080;-24
2022/07/26 11:32:07;;;;;;;1.00;0.80;;;;;;;29.30;30.68;98434.33;104358;1277;61252;-24
2022/07/26 11:34:44;;;;;;;2.90;0.80;;;;;;;28.85;31.51;98439.55;104626;1277;75810;-24
2022/07/26 11:37:12;;;;;;;3.10;0.80;;;;;;;28.54;30.93;98438.94;104610;1276;75917;-24
2022/07/26 11:39:39;;;;;;;1.60;0.70;;;;;;;28.30;31.18;98441.81;104564;1277;75435;-25
2022/07/26 11:42:08;;;;;;;1.60;0.70;;;;;;;28.20;32.25;98432.91;104587;1277;61073;-24
2022/07/26 11:44:36;;;;;;;4.90;1.10;;;;;;;28.88;31.38;98429.19;104685;1277;62725;-25